Pagrindinis puslapis
METAR-TAF:

METAR-TAF

Oro uostai :

Perry-Foley Airport

Perry, Florida, Jungtinės Amerikos Valstijos

platuma: 30-04-19N, ilguma: 083-34-25W, Aukštis: 13 m

Dabartinis oras

Ataskaita buvo paskelbta 25 minutes, ne 08:15 UTC
Vėjas 7 kt iš Šiaurės Vakarų
Temperatūra 8°C
Drėgmė 76%
Slėgis 1020 hPa
Matomumas: 16.1 km
Giedras dangus

METAR: K40J 270815Z AUTO 32007KT 10SM CLR 08/04 A3013 RMK AO2 T00790036

Laikas: 03:40 (08:40 UTC)


TAF: trūkstamas

Orai ataskaitas ir orų prognozės (METAR, TAF).

turimą stotys yra geltonos ir raudonos taškus žemėlapyje.

Perkelti pele per norėdami pamatyti stoties vardą.

Tada spustelėkite, norėdami matyti oro stebėjimo ir prognozės.

Norėdami pakeisti žemėlapį: spustelėkite ant žalios mygtukų su juodo kryžiaus žemyn,; žalią mygtuką su brūkšneliu, jei norite nutolinti; arba žalių rodyklių gretimoms žemėlapius.


METAR-TAF: